createdAt,value
2017-07-10T00:00:06.110Z,997.07
2017-07-10T00:02:31.650Z,997.1
2017-07-10T00:04:47.670Z,997.14
2017-07-10T00:07:21.146Z,997.13
2017-07-10T00:09:45.646Z,997.1
2017-07-10T00:12:10.158Z,997.11
2017-07-10T00:14:34.641Z,997.11
2017-07-10T00:16:59.125Z,997.14
2017-07-10T00:19:23.603Z,997.1
2017-07-10T00:21:48.073Z,997.19
2017-07-10T00:24:12.528Z,997.21
2017-07-10T00:26:14.594Z,997.21
2017-07-10T00:28:39.071Z,997.19
2017-07-10T00:31:03.536Z,997.23
2017-07-10T00:33:27.985Z,997.24
2017-07-10T00:35:43.969Z,997.19
2017-07-10T00:38:08.346Z,997.12
2017-07-10T00:40:10.312Z,997.13
2017-07-10T00:42:26.273Z,997.09
2017-07-10T00:44:50.665Z,997.09
2017-07-10T00:47:15.077Z,997.08
2017-07-10T00:49:39.522Z,997.03
2017-07-10T00:51:41.107Z,997
2017-07-10T00:54:12.438Z,996.96
2017-07-10T00:56:13.877Z,996.93
2017-07-10T00:58:38.290Z,996.94
2017-07-10T01:00:54.209Z,996.88
2017-07-10T01:03:18.575Z,996.81
2017-07-10T01:05:42.961Z,996.76
2017-07-10T01:08:07.356Z,996.83
2017-07-10T01:10:09.326Z,996.81
2017-07-10T01:12:33.757Z,996.77
2017-07-10T01:14:58.177Z,996.77
2017-07-10T01:17:22.580Z,996.81
2017-07-10T01:19:46.982Z,996.75
2017-07-10T01:22:11.403Z,996.72
2017-07-10T01:24:35.825Z,996.69
2017-07-10T01:27:00.255Z,996.7
2017-07-10T01:29:17.277Z,996.64
2017-07-10T01:31:41.662Z,996.67
2017-07-10T01:34:22.708Z,996.66
2017-07-10T01:36:47.056Z,996.63
2017-07-10T01:39:03.025Z,996.65
2017-07-10T01:41:27.413Z,996.68
2017-07-10T01:43:59.659Z,996.68
2017-07-10T01:46:25.153Z,996.63
2017-07-10T01:48:41.091Z,996.68
2017-07-10T01:51:05.437Z,996.63
2017-07-10T01:53:29.820Z,996.69
2017-07-10T01:55:54.338Z,996.67
2017-07-10T01:58:18.693Z,996.59
2017-07-10T02:00:43.041Z,996.58
2017-07-10T02:03:08.410Z,996.56
2017-07-10T02:05:34.034Z,996.56
2017-07-10T02:07:50.065Z,996.57
2017-07-10T02:10:14.514Z,996.51
2017-07-10T02:12:38.888Z,996.56
2017-07-10T02:15:03.923Z,996.39
2017-07-10T02:17:19.215Z,996.36
2017-07-10T02:19:43.565Z,996.41
2017-07-10T02:22:07.931Z,996.43
2017-07-10T02:24:32.296Z,996.47
2017-07-10T02:26:56.648Z,996.41
2017-07-10T02:29:23.074Z,996.45
2017-07-10T02:31:47.469Z,996.43
2017-07-10T02:34:13.906Z,996.47
2017-07-10T02:36:24.427Z,996.44
2017-07-10T02:38:40.374Z,996.43
2017-07-10T02:41:04.745Z,996.42
2017-07-10T02:43:29.105Z,996.39
2017-07-10T02:45:53.445Z,996.45
2017-07-10T02:48:03.456Z,996.43
2017-07-10T02:50:19.329Z,996.48
2017-07-10T02:52:35.173Z,996.45
2017-07-10T02:54:51.032Z,996.45
2017-07-10T02:57:15.327Z,996.42
2017-07-10T02:59:31.165Z,996.34
2017-07-10T03:01:33.901Z,996.3
2017-07-10T03:03:50.148Z,996.31
2017-07-10T03:06:06.024Z,996.26
2017-07-10T03:08:08.082Z,996.27
2017-07-10T03:10:32.441Z,996.27
2017-07-10T03:12:56.774Z,996.29
2017-07-10T03:15:27.869Z,996.29
2017-07-10T03:17:52.192Z,996.32
2017-07-10T03:20:16.636Z,996.33
2017-07-10T03:22:41.035Z,996.32
2017-07-10T03:25:07.363Z,996.26
2017-07-10T03:27:31.685Z,996.29
2017-07-10T03:29:56.019Z,996.27
2017-07-10T03:32:20.454Z,996.24
2017-07-10T03:34:44.743Z,996.23
2017-07-10T03:37:09.052Z,996.21
2017-07-10T03:39:33.398Z,996.23
2017-07-10T03:41:57.652Z,996.19
2017-07-10T03:44:21.947Z,996.21
2017-07-10T03:46:46.273Z,996.19
2017-07-10T03:49:10.572Z,996.21
2017-07-10T03:51:36.977Z,996.27
2017-07-10T03:54:01.320Z,996.22
2017-07-10T03:56:25.675Z,996.23
2017-07-10T03:58:27.612Z,996.26
2017-07-10T04:00:52.006Z,996.27
2017-07-10T04:03:16.365Z,996.26
2017-07-10T04:05:40.733Z,996.26
2017-07-10T04:08:12.962Z,996.32
2017-07-10T04:10:28.989Z,996.31
2017-07-10T04:12:44.899Z,996.36
2017-07-10T04:15:09.255Z,996.38
2017-07-10T04:17:33.607Z,996.39
2017-07-10T04:19:57.942Z,996.41
2017-07-10T04:22:22.316Z,996.39
2017-07-10T04:25:03.481Z,996.38
2017-07-10T04:27:27.848Z,996.4
2017-07-10T04:30:09.063Z,996.46
2017-07-10T04:32:33.435Z,996.47
2017-07-10T04:34:34.911Z,996.45
2017-07-10T04:36:59.290Z,996.45
2017-07-10T04:39:23.646Z,996.4
2017-07-10T04:41:25.660Z,996.39
2017-07-10T04:43:50.035Z,996.45
2017-07-10T04:46:14.417Z,996.47
2017-07-10T04:48:38.792Z,996.47
2017-07-10T04:51:03.171Z,996.49
2017-07-10T04:53:29.625Z,996.53
2017-07-10T04:56:08.970Z,996.46
2017-07-10T04:58:33.518Z,996.47
2017-07-10T05:00:49.452Z,996.41
2017-07-10T05:03:13.822Z,996.41
2017-07-10T05:05:38.228Z,996.44
2017-07-10T05:08:02.645Z,996.46
2017-07-10T05:10:18.609Z,996.47
2017-07-10T05:12:43.008Z,996.48
2017-07-10T05:14:58.934Z,996.46
2017-07-10T05:17:23.306Z,996.45
2017-07-10T05:19:39.232Z,996.45
2017-07-10T05:22:19.441Z,996.46
2017-07-10T05:24:43.849Z,996.44
2017-07-10T05:27:14.976Z,996.38
2017-07-10T05:29:39.362Z,996.43
2017-07-10T05:32:03.698Z,996.44
2017-07-10T05:34:28.073Z,996.34
2017-07-10T05:36:52.435Z,996.41
2017-07-10T05:39:16.808Z,996.41
2017-07-10T05:41:41.196Z,996.42
2017-07-10T05:44:21.470Z,996.43
2017-07-10T05:47:02.449Z,996.39
2017-07-10T05:49:26.848Z,996.44
2017-07-10T05:51:51.184Z,996.39
2017-07-10T05:55:51.378Z,996.45
2017-07-10T05:58:07.356Z,996.38
2017-07-10T06:00:31.679Z,996.4
2017-07-10T06:02:57.057Z,996.38
2017-07-10T06:05:21.437Z,996.44
2017-07-10T06:07:37.363Z,996.43
2017-07-10T06:09:38.831Z,996.48
2017-07-10T06:12:03.165Z,996.53
2017-07-10T06:14:27.959Z,996.52
2017-07-10T06:18:28.206Z,996.52
2017-07-10T06:20:52.595Z,996.54
2017-07-10T06:23:08.556Z,996.55
2017-07-10T06:25:32.955Z,996.56
2017-07-10T06:27:57.364Z,996.63
2017-07-10T06:30:21.772Z,996.69
2017-07-10T06:32:46.165Z,996.72
2017-07-10T06:35:02.094Z,996.73
2017-07-10T06:37:26.441Z,996.71
2017-07-10T06:39:51.290Z,996.75
2017-07-10T06:42:15.642Z,996.81
2017-07-10T06:44:39.971Z,996.84
2017-07-10T06:47:04.325Z,996.79
2017-07-10T06:49:28.646Z,996.82
2017-07-10T06:51:53.110Z,996.82
2017-07-10T06:54:17.463Z,996.79
2017-07-10T06:56:41.795Z,996.82
2017-07-10T06:59:06.166Z,996.81
2017-07-10T07:01:30.546Z,996.87
2017-07-10T07:03:46.473Z,996.85
2017-07-10T07:06:10.806Z,996.87
2017-07-10T07:08:35.218Z,996.87
2017-07-10T07:10:59.643Z,996.87
2017-07-10T07:13:24.050Z,996.88
2017-07-10T07:15:48.542Z,996.87
2017-07-10T07:18:13.036Z,996.88
2017-07-10T07:20:37.398Z,996.89
2017-07-10T07:23:01.943Z,996.96
2017-07-10T07:25:26.303Z,996.96
2017-07-10T07:27:51.576Z,996.93
2017-07-10T07:30:15.896Z,996.88
2017-07-10T07:32:40.254Z,996.85
2017-07-10T07:35:05.386Z,996.9
2017-07-10T07:37:29.763Z,996.85
2017-07-10T07:39:54.262Z,996.84
2017-07-10T07:42:18.915Z,996.88
2017-07-10T07:44:43.276Z,996.89
2017-07-10T07:47:07.732Z,996.98
2017-07-10T07:49:32.393Z,996.93
2017-07-10T07:51:56.892Z,996.95
2017-07-10T07:54:21.584Z,996.92
2017-07-10T07:56:46.670Z,996.87
2017-07-10T07:59:02.759Z,996.63
2017-07-10T08:01:27.243Z,996.87
2017-07-10T08:03:52.403Z,996.92
2017-07-10T08:06:02.811Z,996.87
2017-07-10T08:08:27.358Z,996.94
2017-07-10T08:10:43.481Z,996.69
2017-07-10T08:13:07.834Z,996.98
2017-07-10T08:15:32.190Z,997.02
2017-07-10T08:17:56.851Z,997.04
2017-07-10T08:20:21.169Z,997.02
2017-07-10T08:22:45.448Z,997.07
2017-07-10T08:25:09.997Z,997.06
2017-07-10T08:27:34.444Z,997.04
2017-07-10T08:29:59.057Z,997.11
2017-07-10T08:32:23.478Z,997.13
2017-07-10T08:34:47.813Z,997.11
2017-07-10T08:38:48.897Z,997.05
2017-07-10T08:41:13.488Z,997.02
2017-07-10T08:43:37.981Z,997.04
2017-07-10T08:46:02.800Z,997.01
2017-07-10T08:48:27.841Z,997.05
2017-07-10T08:50:53.577Z,997.02
2017-07-10T08:53:18.410Z,997.03
2017-07-10T08:55:43.320Z,997.11
2017-07-10T08:58:08.277Z,997.12
2017-07-10T09:00:33.460Z,997.26
2017-07-10T09:02:49.627Z,997.05
2017-07-10T09:05:14.671Z,997.2
2017-07-10T09:07:39.557Z,997.16
2017-07-10T09:10:04.505Z,997.13
2017-07-10T09:12:29.272Z,997.17
2017-07-10T09:14:54.450Z,997.22
2017-07-10T09:17:21.486Z,997.16
2017-07-10T09:19:47.074Z,997.11
2017-07-10T09:22:12.094Z,997.19
2017-07-10T09:24:37.055Z,997.23
2017-07-10T09:27:02.063Z,997.16
2017-07-10T09:29:27.254Z,997.22
2017-07-10T09:31:43.768Z,997.16
2017-07-10T09:34:08.810Z,997.23
2017-07-10T09:36:33.871Z,997.24
2017-07-10T09:38:59.003Z,997.19
2017-07-10T09:41:24.085Z,997.16
2017-07-10T09:43:49.113Z,997.29
2017-07-10T09:46:14.109Z,997.27
2017-07-10T09:48:39.355Z,997.32
2017-07-10T09:51:04.536Z,997.16
2017-07-10T09:53:29.751Z,997.14
2017-07-10T09:55:54.936Z,997.14
2017-07-10T09:58:20.128Z,997.1
2017-07-10T10:00:45.270Z,997.12
2017-07-10T10:03:10.454Z,997.09
2017-07-10T10:05:35.539Z,997.07
2017-07-10T10:08:00.709Z,997.22
2017-07-10T10:10:25.876Z,997.08
2017-07-10T10:12:51.084Z,997.15
2017-07-10T10:16:53.488Z,996.99
2017-07-10T10:19:04.403Z,997.11
2017-07-10T10:21:29.926Z,997.06
2017-07-10T10:23:55.159Z,997.05
2017-07-10T10:26:20.454Z,997
2017-07-10T10:28:37.051Z,997
2017-07-10T10:31:02.327Z,997.01
2017-07-10T10:33:27.429Z,996.99
2017-07-10T10:37:28.866Z,997.02
2017-07-10T10:39:39.990Z,996.94
2017-07-10T10:42:05.184Z,996.85
2017-07-10T10:44:30.592Z,996.86
2017-07-10T10:46:55.749Z,996.75
2017-07-10T10:49:20.879Z,996.7
2017-07-10T10:51:46.294Z,996.75
2017-07-10T10:54:11.472Z,996.7
2017-07-10T10:56:36.655Z,996.66
2017-07-10T10:59:01.952Z,996.71
2017-07-10T11:01:27.097Z,996.64
2017-07-10T11:03:52.042Z,996.67
2017-07-10T11:06:17.234Z,996.69
2017-07-10T11:08:42.599Z,996.77
2017-07-10T11:11:07.659Z,996.72
2017-07-10T11:13:33.254Z,996.65
2017-07-10T11:15:58.460Z,996.59
2017-07-10T11:20:00.331Z,996.52
2017-07-10T11:22:26.136Z,996.51
2017-07-10T11:24:52.823Z,996.53
2017-07-10T11:27:17.803Z,996.56
2017-07-10T11:29:43.118Z,996.54
2017-07-10T11:32:08.510Z,996.57
2017-07-10T11:34:33.444Z,996.6
2017-07-10T11:36:58.337Z,996.54
2017-07-10T11:39:23.435Z,996.55
2017-07-10T11:41:48.679Z,996.41
2017-07-10T11:44:13.905Z,996.47
2017-07-10T11:46:39.343Z,996.43
2017-07-10T11:49:04.395Z,996.44
2017-07-10T11:51:21.896Z,996.46
2017-07-10T11:53:47.150Z,996.55
2017-07-10T11:56:12.359Z,996.52
2017-07-10T11:58:38.019Z,996.47
2017-07-10T12:01:02.424Z,996.49
2017-07-10T12:03:27.472Z,996.38
2017-07-10T12:05:52.532Z,996.37
2017-07-10T12:08:17.631Z,996.33
2017-07-10T12:10:42.457Z,996.36
2017-07-10T12:13:08.017Z,996.24
2017-07-10T12:15:33.074Z,996.3
2017-07-10T12:17:58.498Z,996.3
2017-07-10T12:20:23.467Z,996.23
2017-07-10T12:22:48.561Z,996.3
2017-07-10T12:25:13.549Z,996.18
2017-07-10T12:27:24.593Z,996.2
2017-07-10T12:29:49.613Z,996.13
2017-07-10T12:32:06.106Z,995.95
2017-07-10T12:34:31.139Z,996
2017-07-10T12:36:56.841Z,996
2017-07-10T12:39:21.946Z,995.98
2017-07-10T12:41:46.938Z,995.99
2017-07-10T12:44:11.888Z,995.93
2017-07-10T12:46:36.997Z,995.92
2017-07-10T12:49:02.089Z,996.02
2017-07-10T12:51:27.257Z,996.02
2017-07-10T12:53:52.095Z,996.02
2017-07-10T12:56:17.086Z,996.17
2017-07-10T12:58:42.038Z,996.16
2017-07-10T13:01:07.062Z,996.13
2017-07-10T13:03:32.016Z,996.08
2017-07-10T13:05:57.382Z,996.15
2017-07-10T13:08:13.940Z,996.12
2017-07-10T13:10:39.098Z,996.14
2017-07-10T13:13:03.982Z,996.12
2017-07-10T13:15:28.842Z,996.18
2017-07-10T13:17:53.771Z,996.21
2017-07-10T13:20:18.806Z,996.09
2017-07-10T13:22:44.441Z,996.11
2017-07-10T13:25:10.237Z,996.18
2017-07-10T13:27:35.017Z,996.24
2017-07-10T13:30:00.065Z,996.38
2017-07-10T13:32:24.914Z,996.36
2017-07-10T13:36:26.314Z,996.26
2017-07-10T13:38:43.307Z,996.36
2017-07-10T13:41:08.307Z,996.34
2017-07-10T13:43:33.197Z,996.3
2017-07-10T13:45:58.248Z,996.25
2017-07-10T13:48:23.312Z,996.25
2017-07-10T13:50:39.883Z,996.26
2017-07-10T13:53:05.104Z,996.32
2017-07-10T13:55:30.092Z,996.34
2017-07-10T13:59:32.428Z,996.43
2017-07-10T14:01:57.427Z,996.49
2017-07-10T14:04:22.444Z,996.55
2017-07-10T14:06:47.294Z,996.48
2017-07-10T14:09:12.195Z,996.6
2017-07-10T14:11:37.360Z,996.69
2017-07-10T14:14:02.176Z,996.55
2017-07-10T14:16:27.169Z,996.67
2017-07-10T14:18:52.149Z,996.71
2017-07-10T14:21:17.000Z,996.72
2017-07-10T14:23:41.982Z,996.7
2017-07-10T14:25:47.185Z,996.77
2017-07-10T14:28:13.755Z,996.66
2017-07-10T14:30:38.591Z,996.61
2017-07-10T14:33:03.088Z,996.6
2017-07-10T14:35:30.084Z,996.62
2017-07-10T14:37:54.825Z,996.62
2017-07-10T14:40:19.520Z,996.63
2017-07-10T14:42:44.170Z,996.56
2017-07-10T14:45:09.110Z,996.54
2017-07-10T14:47:34.306Z,996.57
2017-07-10T14:49:59.158Z,996.56
2017-07-10T14:52:30.540Z,996.53
2017-07-10T14:54:58.335Z,996.58
2017-07-10T14:57:23.131Z,996.59
2017-07-10T14:59:49.989Z,996.62
2017-07-10T15:04:07.537Z,996.67
2017-07-10T15:06:32.819Z,996.74
2017-07-10T15:08:58.242Z,996.74
2017-07-10T15:11:23.210Z,996.77
2017-07-10T15:13:48.083Z,996.75
2017-07-10T15:16:12.939Z,996.81
2017-07-10T15:18:37.718Z,996.86
2017-07-10T15:21:03.332Z,996.89
2017-07-10T15:23:28.112Z,996.91
2017-07-10T15:25:53.025Z,996.89
2017-07-10T15:27:55.182Z,996.9
2017-07-10T15:30:21.316Z,996.91
2017-07-10T15:32:46.642Z,996.86
2017-07-10T15:35:12.064Z,996.87
2017-07-10T15:37:36.805Z,996.87
2017-07-10T15:40:01.671Z,996.86
2017-07-10T15:42:26.574Z,996.85
2017-07-10T15:44:51.590Z,996.79
2017-07-10T15:47:16.807Z,996.81
2017-07-10T15:49:42.872Z,996.8
2017-07-10T15:52:09.054Z,996.77
2017-07-10T15:54:34.697Z,996.75
2017-07-10T15:56:59.516Z,996.65
2017-07-10T15:59:25.257Z,996.57
2017-07-10T16:01:29.606Z,996.57
2017-07-10T16:03:57.179Z,996.51
2017-07-10T16:06:22.460Z,996.6
2017-07-10T16:08:47.789Z,996.59
2017-07-10T16:11:17.490Z,996.62
2017-07-10T16:13:45.311Z,996.58
2017-07-10T16:16:11.692Z,996.49
2017-07-10T16:18:37.180Z,996.62
2017-07-10T16:21:02.213Z,996.67
2017-07-10T16:23:27.106Z,996.66
2017-07-10T16:25:51.952Z,996.67
2017-07-10T16:28:16.826Z,996.63
2017-07-10T16:30:41.580Z,996.62
2017-07-10T16:33:06.451Z,996.62
2017-07-10T16:35:32.847Z,996.59
2017-07-10T16:37:57.674Z,996.53
2017-07-10T16:40:22.808Z,996.55
2017-07-10T16:42:47.613Z,996.58
2017-07-10T16:45:12.347Z,996.57
2017-07-10T16:47:37.254Z,996.68
2017-07-10T16:50:01.846Z,996.66
2017-07-10T16:52:27.053Z,996.7
2017-07-10T16:54:51.795Z,996.68
2017-07-10T16:58:53.356Z,996.72
2017-07-10T17:01:18.036Z,996.72
2017-07-10T17:03:42.665Z,996.73
2017-07-10T17:05:59.126Z,996.74
2017-07-10T17:08:23.793Z,996.72
2017-07-10T17:10:48.449Z,996.76
2017-07-10T17:13:13.140Z,996.74
2017-07-10T17:15:37.806Z,996.67
2017-07-10T17:18:02.538Z,996.66
2017-07-10T17:20:27.278Z,996.71
2017-07-10T17:22:52.005Z,996.69
2017-07-10T17:25:16.765Z,996.64
2017-07-10T17:27:41.463Z,996.71
2017-07-10T17:30:06.171Z,996.76
2017-07-10T17:32:30.974Z,996.87
2017-07-10T17:34:55.553Z,996.93
2017-07-10T17:37:20.244Z,996.86
2017-07-10T17:39:44.892Z,996.97
2017-07-10T17:42:09.589Z,996.99
2017-07-10T17:44:34.495Z,996.96
2017-07-10T17:46:59.245Z,996.86
2017-07-10T17:49:23.911Z,996.91
2017-07-10T17:51:48.622Z,997.02
2017-07-10T17:53:50.223Z,997.06
2017-07-10T17:56:06.493Z,997.05
2017-07-10T17:58:31.183Z,997.07
2017-07-10T18:00:41.334Z,997.06
2017-07-10T18:03:06.334Z,997.02
2017-07-10T18:05:31.977Z,996.98
2017-07-10T18:07:48.098Z,996.94
2017-07-10T18:10:12.762Z,996.95
2017-07-10T18:12:37.740Z,997.03
2017-07-10T18:15:02.396Z,997.17
2017-07-10T18:17:26.943Z,997.28
2017-07-10T18:19:51.615Z,997.33
2017-07-10T18:22:16.298Z,997.25
2017-07-10T18:24:26.879Z,997.21
2017-07-10T18:26:51.586Z,997.2
2017-07-10T18:29:16.285Z,997.14
2017-07-10T18:31:40.852Z,997.19
2017-07-10T18:34:05.510Z,997.21
2017-07-10T18:36:30.143Z,997.3
2017-07-10T18:38:54.812Z,997.32
2017-07-10T18:41:19.497Z,997.27
2017-07-10T18:43:29.511Z,997.23
2017-07-10T18:45:54.186Z,997.29
2017-07-10T18:48:18.843Z,997.24
2017-07-10T18:50:43.375Z,997.29
2017-07-10T18:53:08.004Z,997.25
2017-07-10T18:55:32.582Z,997.23
2017-07-10T18:57:57.193Z,997.27
2017-07-10T19:00:21.733Z,997.32
2017-07-10T19:02:46.339Z,997.35
2017-07-10T19:04:56.436Z,997.32
2017-07-10T19:07:20.997Z,997.32
2017-07-10T19:09:23.054Z,997.31
2017-07-10T19:11:24.584Z,997.3
2017-07-10T19:13:40.738Z,997.32
2017-07-10T19:16:05.339Z,997.3
2017-07-10T19:18:29.818Z,997.38
2017-07-10T19:20:54.351Z,997.41
2017-07-10T19:23:18.910Z,997.47
2017-07-10T19:25:43.477Z,997.5
2017-07-10T19:28:07.979Z,997.55
2017-07-10T19:30:24.002Z,997.68
2017-07-10T19:32:48.542Z,997.83
2017-07-10T19:35:13.041Z,997.83
2017-07-10T19:37:37.532Z,997.77
2017-07-10T19:40:02.034Z,997.69
2017-07-10T19:42:04.076Z,997.73
2017-07-10T19:44:28.619Z,997.72
2017-07-10T19:46:53.135Z,997.66
2017-07-10T19:49:17.646Z,997.66
2017-07-10T19:51:42.112Z,997.76
2017-07-10T19:54:06.578Z,997.91
2017-07-10T19:56:22.585Z,997.93
2017-07-10T19:58:47.037Z,997.92
2017-07-10T20:01:03.008Z,997.97
2017-07-10T20:03:27.465Z,997.98
2017-07-10T20:05:51.900Z,997.97
2017-07-10T20:08:16.335Z,997.92
2017-07-10T20:10:40.781Z,997.84
2017-07-10T20:13:05.211Z,997.85
2017-07-10T20:15:29.607Z,997.91
2017-07-10T20:17:54.043Z,998.04
2017-07-10T20:20:18.471Z,998.11
2017-07-10T20:22:42.898Z,998.12
2017-07-10T20:25:07.300Z,998.17
2017-07-10T20:27:31.713Z,998.24
2017-07-10T20:29:56.069Z,998.27
2017-07-10T20:32:20.475Z,998.29
2017-07-10T20:34:44.847Z,998.35
2017-07-10T20:37:09.212Z,998.3
2017-07-10T20:39:33.561Z,998.4
2017-07-10T20:41:57.907Z,998.42
2017-07-10T20:44:22.274Z,998.46
2017-07-10T20:46:46.625Z,998.55
2017-07-10T20:49:11.032Z,998.67
2017-07-10T20:51:35.437Z,998.71
2017-07-10T20:53:59.815Z,998.76
2017-07-10T20:56:24.206Z,998.8
2017-07-10T20:58:48.522Z,998.77
2017-07-10T21:01:05.300Z,998.84
2017-07-10T21:03:35.347Z,998.79
2017-07-10T21:05:59.631Z,998.8
2017-07-10T21:08:23.913Z,998.77
2017-07-10T21:10:48.187Z,998.79
2017-07-10T21:13:12.426Z,998.87
2017-07-10T21:15:36.667Z,998.85
2017-07-10T21:18:00.971Z,998.87
2017-07-10T21:20:25.193Z,998.94
2017-07-10T21:22:49.424Z,998.94
2017-07-10T21:25:13.733Z,999.01
2017-07-10T21:27:37.937Z,999.05
2017-07-10T21:30:02.211Z,999
2017-07-10T21:32:26.473Z,998.97
2017-07-10T21:34:50.723Z,998.93
2017-07-10T21:37:14.970Z,998.92
2017-07-10T21:39:39.225Z,998.94
2017-07-10T21:42:03.371Z,998.92
2017-07-10T21:44:27.710Z,998.91
2017-07-10T21:46:51.994Z,998.92
2017-07-10T21:49:16.199Z,998.96
2017-07-10T21:53:16.331Z,998.93
2017-07-10T21:55:40.554Z,999
2017-07-10T21:58:04.762Z,999.06
2017-07-10T22:00:28.913Z,999.13
2017-07-10T22:02:53.097Z,999.16
2017-07-10T22:05:08.818Z,999.1
2017-07-10T22:07:33.015Z,999.17
2017-07-10T22:09:57.213Z,999.22
2017-07-10T22:12:00.769Z,999.18
2017-07-10T22:14:24.965Z,999.26
2017-07-10T22:16:40.695Z,999.3
2017-07-10T22:19:04.843Z,999.31
2017-07-10T22:21:29.083Z,999.3
2017-07-10T22:23:22.050Z,999.27
2017-07-10T22:25:46.207Z,999.24
2017-07-10T22:28:10.350Z,999.27
2017-07-10T22:30:34.457Z,999.25
2017-07-10T22:32:58.575Z,999.18
2017-07-10T22:35:22.716Z,999.11
2017-07-10T22:37:24.933Z,999.04
2017-07-10T22:39:40.651Z,999.07
2017-07-10T22:42:04.801Z,999.02
2017-07-10T22:44:20.487Z,999.01
2017-07-10T22:46:36.184Z,998.95
2017-07-10T22:48:51.877Z,999.07
2017-07-10T22:51:15.998Z,999.03
2017-07-10T22:53:40.144Z,999.05
2017-07-10T22:56:04.291Z,999.15
2017-07-10T22:58:28.443Z,999.09
2017-07-10T23:00:52.595Z,999.22
2017-07-10T23:03:16.740Z,999.24
2017-07-10T23:05:40.859Z,999.27
2017-07-10T23:08:04.996Z,999.31
2017-07-10T23:10:29.132Z,999.39
2017-07-10T23:12:53.272Z,999.43
2017-07-10T23:15:17.417Z,999.34
2017-07-10T23:17:41.556Z,999.37
2017-07-10T23:20:05.681Z,999.35
2017-07-10T23:22:29.798Z,999.36
2017-07-10T23:24:53.981Z,999.37
2017-07-10T23:27:18.156Z,999.34
2017-07-10T23:29:42.341Z,999.39
2017-07-10T23:32:06.527Z,999.41
2017-07-10T23:34:22.135Z,999.38
2017-07-10T23:36:46.295Z,999.33
2017-07-10T23:39:10.382Z,999.31
2017-07-10T23:41:26.162Z,999.29
2017-07-10T23:43:50.344Z,999.32
2017-07-10T23:46:14.529Z,999.34
2017-07-10T23:48:38.713Z,999.32
2017-07-10T23:51:02.893Z,999.36
2017-07-10T23:53:26.972Z,999.31
2017-07-10T23:55:50.995Z,999.35
2017-07-10T23:58:15.479Z,999.39
